createdAt,value
2022-10-06T06:23:09.621Z,61.85
2022-10-06T06:25:36.936Z,60.05
2022-10-06T06:28:05.380Z,44.08
2022-10-06T07:54:42.505Z,66.50
2022-10-06T07:57:36.623Z,64.75
2022-10-06T08:00:05.554Z,65.53
2022-10-06T08:02:39.760Z,63.22
2022-10-06T08:05:08.267Z,54.92
2022-10-06T08:07:35.278Z,46.67
2022-10-06T08:10:02.205Z,55.45
2022-10-06T08:12:37.396Z,53.60
2022-10-06T08:15:11.593Z,49.80
2022-10-06T08:17:38.677Z,63.35
2022-10-06T08:20:08.694Z,61.17
2022-10-06T08:22:36.299Z,58.75
2022-10-06T08:25:07.179Z,51.03
2022-10-06T08:27:35.781Z,54.97
2022-10-06T08:30:04.769Z,64.32
2022-10-06T08:32:32.873Z,59.33
2022-10-06T08:35:00.705Z,56.55
2022-10-06T08:37:27.640Z,64.85
2022-10-06T08:39:55.463Z,59.10
2022-10-06T08:42:39.805Z,62.90
2022-10-06T08:45:35.004Z,62.92
2022-10-06T08:48:09.508Z,63.42
2022-10-06T08:50:50.938Z,50.08
2022-10-06T08:53:33.888Z,67.45
2022-10-06T08:56:18.451Z,53.00
2022-10-06T08:58:58.387Z,50.97
2022-10-06T09:01:28.895Z,52.40
2022-10-06T09:04:05.139Z,63.42
2022-10-06T09:06:49.846Z,53.97
2022-10-06T09:09:46.857Z,54.42
2022-10-06T09:12:34.958Z,47.50
2022-10-06T09:15:20.721Z,46.97
2022-10-06T09:18:49.371Z,44.70
2022-10-06T09:21:23.406Z,57.53
2022-10-06T09:23:56.954Z,51.25
2022-10-06T09:26:29.822Z,43.67
2022-10-06T09:28:57.426Z,42.78
2022-10-06T09:31:25.779Z,46.78
2022-10-06T09:33:55.351Z,47.58
2022-10-06T09:36:22.407Z,45.42
2022-10-06T09:38:53.843Z,46.50
2022-10-06T09:41:27.077Z,62.65
2022-10-06T09:43:58.911Z,49.13
2022-10-06T09:46:41.640Z,50.17
2022-10-06T09:52:12.728Z,58.47
2022-10-06T09:54:43.377Z,50.25
2022-10-06T09:57:17.112Z,50.88
2022-10-06T09:59:46.680Z,51.10
2022-10-06T10:02:37.549Z,56.30
2022-10-06T10:05:07.793Z,49.15
2022-10-06T10:07:36.037Z,53.85
2022-10-06T10:10:21.650Z,49.30
2022-10-06T10:12:59.063Z,51.90
2022-10-06T10:15:33.115Z,46.75
2022-10-06T10:18:05.243Z,48.83
2022-10-06T10:20:52.174Z,55.45
2022-10-06T10:23:33.379Z,44.80
2022-10-06T10:26:20.743Z,46.88
2022-10-06T10:29:19.220Z,49.22
2022-10-06T10:31:51.720Z,48.15
2022-10-06T10:37:12.381Z,58.50
2022-10-06T10:40:10.003Z,37.75
2022-10-06T10:43:02.226Z,39.47
2022-10-06T10:45:34.891Z,42.17
2022-10-06T10:48:19.803Z,50.42
2022-10-06T10:51:18.720Z,41.95
2022-10-06T10:53:55.605Z,40.45
2022-10-06T10:56:26.253Z,42.90
2022-10-06T10:58:59.869Z,47.00
2022-10-06T11:01:39.494Z,45.45
2022-10-06T11:06:46.533Z,36.20
2022-10-06T11:09:20.944Z,42.38
2022-10-06T11:11:58.714Z,44.80
2022-10-06T11:14:52.502Z,37.80
2022-10-06T11:17:40.033Z,39.60
2022-10-06T11:20:25.042Z,44.67
2022-10-06T11:23:43.290Z,36.38
2022-10-06T11:26:12.765Z,48.10
2022-10-06T11:29:02.851Z,46.05
2022-10-06T11:31:51.378Z,51.28
2022-10-06T11:34:18.409Z,45.08
2022-10-06T11:37:39.639Z,53.58
2022-10-06T11:40:21.320Z,47.22
2022-10-06T11:42:55.815Z,49.30
2022-10-06T11:45:45.534Z,48.08
2022-10-06T11:48:24.624Z,41.60
2022-10-06T11:50:55.578Z,42.25
2022-10-06T11:53:27.590Z,46.90
2022-10-06T11:56:19.403Z,50.13
2022-10-06T11:58:52.021Z,53.38
2022-10-06T12:01:30.585Z,46.25
2022-10-06T12:04:09.069Z,51.10
2022-10-06T12:06:44.825Z,47.40
2022-10-06T12:09:32.534Z,47.40
2022-10-06T12:12:21.011Z,55.78
2022-10-06T12:18:07.793Z,52.25
2022-10-06T21:11:26.221Z,29.85
2022-10-06T21:13:56.503Z,36.40
2022-10-06T21:16:26.157Z,36.38
2022-10-06T21:18:53.395Z,30.58
2022-10-06T21:21:22.258Z,29.50
2022-10-06T21:23:50.215Z,32.60
2022-10-06T21:26:19.594Z,30.45
2022-10-06T21:28:46.802Z,28.50
2022-10-06T21:31:16.126Z,28.02
2022-10-06T21:33:44.810Z,29.20
2022-10-06T21:36:18.388Z,43.28
2022-10-06T21:38:50.711Z,31.95
